• Join FlightAware (Why Join?)
  • Login
  • US Flag 
09:34AM EDT


 

Airport Tracker/Info


-or-


 

Live Flight TrackerFlight Track Log ✈ VH-DYH ✈ 15-Jul-2013 ✈ YHBA / HVB - YBAF

Flight Track Log - Related Links

Times and Time Zones

All times are in EDT time to prevent confusion due to time zone crossing. See the VH-DYH flight status page for this flight to view local times or setup timezone preferences in your user account.

Time Position Orientation Groundspeed Altitude Reporting Facility
EDT Latitude Longitude Course Direction KTS MPH feet Rate Location/Type
06:39PM -25.4083 152.8733 203° Southwest 5,000  Level Aus ATC (Calculated)
06:40PM -25.4083 152.8733 203° Southwest 5,000  Level Aus ATC (Calculated)
06:42PM -25.4958 152.8664 184° South  Level FlightAware Approximate
06:42PM -25.4922 152.8667 223° Southwest 5,000  Level Aus ATC (Calculated)
06:44PM -25.5789 152.8599 184° South  Level FlightAware Approximate
06:44PM -25.5708 152.8605 294° West 5,000  Level Aus ATC (Calculated)
06:44PM -25.5492 152.8077 184° South 142 163 5,000  Level Aus ATC (RADAR)
06:45PM -25.5744 152.8033 189° South 155 178 5,000  Level Aus ATC (RADAR)
06:46PM -25.6039 152.8008 184° South 160 184 5,000 60 Level Aus ATC (RADAR)
06:46PM -25.6255 152.8003 181° South 157 181 5,100 480 Climbing Aus ATC (RADAR)
06:47PM -25.6744 152.7964 184° South 138 159 5,900 600 Climbing Aus ATC (RADAR)
06:48PM -25.6973 152.7963 180° South 126 145 6,300 600 Climbing Aus ATC (RADAR)
06:49PM -25.7263 152.7892 192° South 128 147 6,800 480 Climbing Aus ATC (RADAR)
06:50PM -25.7512 152.7874 184° South 125 144 7,100 120 Climbing Aus ATC (RADAR)
06:50PM -25.7738 152.7868 181° South 139 160 7,000 -120 Descending Aus ATC (RADAR)
06:51PM -25.8138 152.7819 186° South 157 181 7,000  Level Aus ATC (RADAR)
06:52PM -25.8589 152.7779 185° South 164 189 7,100 60 Climbing Aus ATC (RADAR)
06:53PM -25.8892 152.7769 182° South 165 190 7,100  Level Aus ATC (RADAR)
06:53PM -25.9162 152.7764 181° South 166 191 7,100  Level Aus ATC (RADAR)
06:54PM -25.9514 152.7742 183° South 167 192 7,100 -60 Level Aus ATC (RADAR)
06:55PM -25.9978 152.7703 184° South 168 193 7,000 -60 Descending Aus ATC (RADAR)
06:56PM -26.0344 152.7709 179° South 159 183 7,000  Level Aus ATC (RADAR)
06:56PM -26.0608 152.7704 181° South 161 185 7,000 60 Level Aus ATC (RADAR)
06:57PM -26.1055 152.7690 182° South 161 185 7,100  Climbing Aus ATC (RADAR)
06:58PM -26.1507 152.7678 181° South 163 188 7,000  Descending Aus ATC (RADAR)
06:59PM -26.1841 152.7678 180° South 160 184 7,100 60 Climbing Aus ATC (RADAR)
07:00PM -26.2064 152.7672 182° South 160 184 7,100  Level Aus ATC (RADAR)
07:00PM -26.2358 152.7657 183° South 158 182 7,100 -120 Level Aus ATC (RADAR)
07:01PM -26.2641 152.7675 177° South 154 177 7,000  Descending Aus ATC (RADAR)
07:02PM -26.2894 152.7668 181° South 156 180 7,100  Climbing Aus ATC (RADAR)
07:03PM -26.3303 152.7656 181° South 163 188 7,000 -60 Descending Aus ATC (RADAR)
07:03PM -26.3675 152.7650 181° South 161 185 7,000 60 Level Aus ATC (RADAR)
07:04PM -26.4014 152.7647 180° South 161 185 7,100 60 Climbing Aus ATC (RADAR)
07:05PM -26.4280 152.7645 180° South 164 189 7,100 -120 Level Aus ATC (RADAR)
07:05PM -26.4628 152.7650 179° South 166 191 7,000 -60 Descending Aus ATC (RADAR)
07:06PM -26.5083 152.7643 181° South 163 188 7,000  Level Aus ATC (RADAR)
07:08PM -26.5611 152.7628 181° South 161 185 7,000  Level Aus ATC (RADAR)
07:09PM -26.6027 152.7615 182° South 163 188 7,100 60 Climbing Aus ATC (RADAR)
07:09PM -26.6362 152.7608 181° South 159 183 7,100  Level Aus ATC (RADAR)
07:10PM -26.6625 152.7601 181° South 160 184 7,100  Level Aus ATC (RADAR)
07:10PM -26.6888 152.7594 181° South 162 186 7,100  Level Aus ATC (RADAR)
07:11PM -26.7152 152.7589 181° South 161 185 7,100  Level Aus ATC (RADAR)
07:12PM -26.7413 152.7591 179° South 160 184 7,100  Level Aus ATC (RADAR)
07:13PM -26.7903 152.7635 175° South 161 185 7,100  Level Aus ATC (RADAR)
07:14PM -26.8311 152.7724 169° South 161 185 7,100  Level Aus ATC (RADAR)
07:14PM -26.8680 152.7812 168° South 162 186 7,100 -120 Level Aus ATC (RADAR)
07:15PM -26.8942 152.7867 169° South 163 188 7,000  Descending Aus ATC (RADAR)
07:16PM -26.9350 152.7986 166° South 164 189 7,100  Climbing Aus ATC (RADAR)
07:17PM -26.9714 152.8099 164° South 162 186 7,100 -360 Level Aus ATC (RADAR)
07:18PM -27.0344 152.8308 164° South 180 207 6,400 -540 Descending Aus ATC (RADAR)
07:19PM -27.0749 152.8464 161° South 182 209 6,000 -540 Descending Aus ATC (RADAR)
07:20PM -27.1116 152.8597 162° South 182 209 5,600 -600 Descending Aus ATC (RADAR)
07:20PM -27.1406 152.8700 162° South 185 213 5,200 -660 Descending Aus ATC (RADAR)
07:21PM -27.1812 152.8843 163° South 182 209 4,700 -540 Descending Aus ATC (RADAR)
07:22PM -27.2441 152.8939 172° South 186 214 4,100 -660 Descending Aus ATC (RADAR)
07:23PM -27.2877 152.8979 175° South 189 217 3,400 -660 Descending Aus ATC (RADAR)
07:24PM -27.3267 152.9010 176° South 186 214 3,100 -240 Descending Aus ATC (RADAR)
07:25PM -27.3664 152.9053 174° South 171 197 3,100  Level Aus ATC (RADAR)
07:25PM -27.3973 152.9094 173° South 167 192 3,100 -240 Level Aus ATC (RADAR)
07:26PM -27.4327 152.9183 168° South 174 200 2,800 -540 Descending Aus ATC (RADAR)
07:27PM -27.4605 152.9274 164° South 177 204 2,400 -600 Descending Aus ATC (RADAR)
07:28PM -27.5183 152.9438 166° South 179 206 1,800 -600 Descending Aus ATC (RADAR)
07:29PM -27.5570 152.9546 166° South 168 193 1,300 -840 Descending Aus ATC (RADAR)
07:29PM -27.5670 152.9840 111° Southeast 123 142 500 -1,080 Descending Aus ATC (RADAR)